sensor_id;sensor_type;location;lat;lon;timestamp;pressure;altitude;pressure_sealevel;temperature;humidity
21185;BME280;18176;49.502;11.754;2023-09-07T00:03:04;97467.81;;;19.50;65.57
21185;BME280;18176;49.502;11.754;2023-09-07T00:07:05;97474.53;;;19.48;65.39
21185;BME280;18176;49.502;11.754;2023-09-07T00:11:06;97468.13;;;19.34;66.21
21185;BME280;18176;49.502;11.754;2023-09-07T00:15:10;97483.69;;;19.32;66.36
21185;BME280;18176;49.502;11.754;2023-09-07T00:19:13;97475.66;;;19.17;66.46
21185;BME280;18176;49.502;11.754;2023-09-07T00:23:14;97449.31;;;19.09;66.50
21185;BME280;18176;49.502;11.754;2023-09-07T00:27:14;97467.06;;;19.05;66.91
21185;BME280;18176;49.502;11.754;2023-09-07T00:31:15;97470.84;;;18.88;67.48
21185;BME280;18176;49.502;11.754;2023-09-07T00:35:18;97460.66;;;18.75;67.73
21185;BME280;18176;49.502;11.754;2023-09-07T00:39:18;97473.00;;;18.86;67.70
21185;BME280;18176;49.502;11.754;2023-09-07T00:43:19;97456.09;;;18.76;67.88
21185;BME280;18176;49.502;11.754;2023-09-07T00:47:20;97470.31;;;18.91;67.06
21185;BME280;18176;49.502;11.754;2023-09-07T00:51:24;97466.56;;;18.87;67.36
21185;BME280;18176;49.502;11.754;2023-09-07T00:55:24;97464.94;;;18.61;68.27
21185;BME280;18176;49.502;11.754;2023-09-07T00:59:25;97467.59;;;18.56;68.38
21185;BME280;18176;49.502;11.754;2023-09-07T01:03:26;97470.56;;;18.70;67.57
21185;BME280;18176;49.502;11.754;2023-09-07T01:07:35;97458.47;;;18.67;67.37
21185;BME280;18176;49.502;11.754;2023-09-07T01:11:37;97449.31;;;18.33;67.70
21185;BME280;18176;49.502;11.754;2023-09-07T01:15:38;97458.44;;;18.42;68.10
21185;BME280;18176;49.502;11.754;2023-09-07T01:19:39;97464.38;;;18.54;67.57
21185;BME280;18176;49.502;11.754;2023-09-07T01:23:44;97460.03;;;18.38;68.27
21185;BME280;18176;49.502;11.754;2023-09-07T01:27:47;97452.53;;;18.30;68.28
21185;BME280;18176;49.502;11.754;2023-09-07T01:31:49;97446.06;;;18.16;68.53
21185;BME280;18176;49.502;11.754;2023-09-07T01:35:49;97455.69;;;18.12;69.18
21185;BME280;18176;49.502;11.754;2023-09-07T01:39:53;97455.47;;;18.18;68.35
21185;BME280;18176;49.502;11.754;2023-09-07T01:43:54;97454.13;;;18.16;68.60
21185;BME280;18176;49.502;11.754;2023-09-07T01:47:54;97454.13;;;18.16;68.32
21185;BME280;18176;49.502;11.754;2023-09-07T01:51:55;97447.13;;;18.15;67.77
21185;BME280;18176;49.502;11.754;2023-09-07T01:55:58;97447.09;;;18.00;69.16
21185;BME280;18176;49.502;11.754;2023-09-07T01:59:59;97443.34;;;18.01;69.00
21185;BME280;18176;49.502;11.754;2023-09-07T02:04:09;97430.16;;;17.89;69.20
21185;BME280;18176;49.502;11.754;2023-09-07T02:08:09;97444.91;;;17.92;68.77
21185;BME280;18176;49.502;11.754;2023-09-07T02:12:13;97449.72;;;17.85;69.03
21185;BME280;18176;49.502;11.754;2023-09-07T02:16:13;97452.38;;;17.80;68.99
21185;BME280;18176;49.502;11.754;2023-09-07T02:20:15;97433.53;;;17.54;69.59
21185;BME280;18176;49.502;11.754;2023-09-07T02:24:17;97447.56;;;17.77;68.93
21185;BME280;18176;49.502;11.754;2023-09-07T02:28:20;97450.22;;;17.72;68.72
21185;BME280;18176;49.502;11.754;2023-09-07T02:32:21;97449.13;;;17.63;69.01
21185;BME280;18176;49.502;11.754;2023-09-07T02:36:21;97416.81;;;17.37;69.17
21185;BME280;18176;49.502;11.754;2023-09-07T02:40:22;97434.09;;;17.62;68.25
21185;BME280;18176;49.502;11.754;2023-09-07T02:44:25;97440.50;;;17.56;68.68
21185;BME280;18176;49.502;11.754;2023-09-07T02:48:26;97427.03;;;17.45;68.69
21185;BME280;18176;49.502;11.754;2023-09-07T02:52:27;97429.78;;;17.56;68.35
21185;BME280;18176;49.502;11.754;2023-09-07T02:56:28;97430.22;;;17.37;68.60
21185;BME280;18176;49.502;11.754;2023-09-07T03:00:31;97439.84;;;17.33;68.86
21185;BME280;18176;49.502;11.754;2023-09-07T03:04:32;97442.28;;;17.40;69.00
21185;BME280;18176;49.502;11.754;2023-09-07T03:08:33;97439.28;;;17.31;69.15
21185;BME280;18176;49.502;11.754;2023-09-07T03:12:34;97420.09;;;17.03;69.21
21185;BME280;18176;49.502;11.754;2023-09-07T03:16:37;97413.72;;;17.09;69.09
21185;BME280;18176;49.502;11.754;2023-09-07T03:20:39;97436.59;;;17.26;68.83
21185;BME280;18176;49.502;11.754;2023-09-07T03:24:41;97446.34;;;17.01;69.77
21185;BME280;18176;49.502;11.754;2023-09-07T03:28:41;97438.59;;;17.04;69.80
21185;BME280;18176;49.502;11.754;2023-09-07T03:32:44;97437.41;;;16.90;70.38
21185;BME280;18176;49.502;11.754;2023-09-07T03:36:45;97430.41;;;16.84;69.57
21185;BME280;18176;49.502;11.754;2023-09-07T03:40:46;97435.31;;;16.92;69.72
21185;BME280;18176;49.502;11.754;2023-09-07T03:44:49;97444.84;;;16.78;70.25
21185;BME280;18176;49.502;11.754;2023-09-07T03:48:52;97441.47;;;16.61;71.03
21185;BME280;18176;49.502;11.754;2023-09-07T03:52:52;97444.69;;;16.63;70.83
21185;BME280;18176;49.502;11.754;2023-09-07T03:56:52;97429.63;;;16.52;70.79
21185;BME280;18176;49.502;11.754;2023-09-07T04:00:53;97440.94;;;16.59;70.81
21185;BME280;18176;49.502;11.754;2023-09-07T04:04:56;97436.97;;;16.40;71.36
21185;BME280;18176;49.502;11.754;2023-09-07T04:08:59;97444.25;;;16.44;71.24
21185;BME280;18176;49.502;11.754;2023-09-07T04:12:59;97429.63;;;16.52;70.45
21185;BME280;18176;49.502;11.754;2023-09-07T04:17:00;97417.81;;;16.48;70.37
21185;BME280;18176;49.502;11.754;2023-09-07T04:21:10;97449.22;;;16.57;70.73
21185;BME280;18176;49.502;11.754;2023-09-07T04:25:11;97447.78;;;16.50;70.90
21185;BME280;18176;49.502;11.754;2023-09-07T04:29:11;97443.56;;;16.54;70.53
21185;BME280;18176;49.502;11.754;2023-09-07T04:33:12;97433.84;;;16.48;70.58
21185;BME280;18176;49.502;11.754;2023-09-07T04:37:15;97444.63;;;16.53;70.98
21185;BME280;18176;49.502;11.754;2023-09-07T04:41:16;97450.47;;;16.50;70.43
21185;BME280;18176;49.502;11.754;2023-09-07T04:45:17;97454.94;;;16.44;70.87
21185;BME280;18176;49.502;11.754;2023-09-07T04:49:17;97432.88;;;16.27;70.71
21185;BME280;18176;49.502;11.754;2023-09-07T04:53:21;97450.91;;;16.42;70.23
21185;BME280;18176;49.502;11.754;2023-09-07T04:57:21;97453.13;;;16.50;70.38
21185;BME280;18176;49.502;11.754;2023-09-07T05:01:22;97442.00;;;16.31;70.89
21185;BME280;18176;49.502;11.754;2023-09-07T05:05:24;97460.28;;;16.44;70.87
21185;BME280;18176;49.502;11.754;2023-09-07T05:09:27;97467.69;;;16.59;70.53
21185;BME280;18176;49.502;11.754;2023-09-07T05:13:29;97466.59;;;16.55;70.53
21185;BME280;18176;49.502;11.754;2023-09-07T05:17:31;97474.72;;;16.70;69.89
21185;BME280;18176;49.502;11.754;2023-09-07T05:21:32;97462.44;;;16.69;69.58
21185;BME280;18176;49.502;11.754;2023-09-07T05:25:43;97452.66;;;16.53;69.84
21185;BME280;18176;49.502;11.754;2023-09-07T05:29:45;97477.13;;;16.71;70.39
21185;BME280;18176;49.502;11.754;2023-09-07T05:33:46;97485.00;;;16.83;69.93
21185;BME280;18176;49.502;11.754;2023-09-07T05:37:47;97476.00;;;16.94;69.47
21185;BME280;18176;49.502;11.754;2023-09-07T05:41:52;97476.59;;;17.01;69.18
21185;BME280;18176;49.502;11.754;2023-09-07T05:45:52;97494.97;;;17.29;69.47
21185;BME280;18176;49.502;11.754;2023-09-07T05:49:53;97469.28;;;17.28;69.27
21185;BME280;18176;49.502;11.754;2023-09-07T05:53:54;97489.81;;;17.60;69.14
21185;BME280;18176;49.502;11.754;2023-09-07T05:57:58;97483.50;;;17.81;68.61
21185;BME280;18176;49.502;11.754;2023-09-07T06:02:02;97481.44;;;18.08;67.93
21185;BME280;18176;49.502;11.754;2023-09-07T06:06:03;97494.94;;;18.43;67.84
21185;BME280;18176;49.502;11.754;2023-09-07T06:10:04;97481.31;;;18.55;67.53
21185;BME280;18176;49.502;11.754;2023-09-07T06:14:08;97503.84;;;18.79;67.87
21185;BME280;18176;49.502;11.754;2023-09-07T06:18:09;97493.94;;;18.89;68.00
21185;BME280;18176;49.502;11.754;2023-09-07T06:22:10;97492.31;;;19.09;67.71
21185;BME280;18176;49.502;11.754;2023-09-07T06:26:10;97497.38;;;19.50;67.78
21185;BME280;18176;49.502;11.754;2023-09-07T06:30:14;97477.19;;;19.68;67.30
21185;BME280;18176;49.502;11.754;2023-09-07T06:34:15;97492.06;;;20.09;66.29
21185;BME280;18176;49.502;11.754;2023-09-07T06:38:15;97488.63;;;20.48;65.19
21185;BME280;18176;49.502;11.754;2023-09-07T06:42:16;97501.72;;;20.98;63.00
21185;BME280;18176;49.502;11.754;2023-09-07T06:46:25;97485.84;;;21.30;61.72
21185;BME280;18176;49.502;11.754;2023-09-07T06:50:26;97498.06;;;21.75;60.54
21185;BME280;18176;49.502;11.754;2023-09-07T06:54:28;97498.78;;;21.81;59.95
21185;BME280;18176;49.502;11.754;2023-09-07T06:58:29;97503.22;;;22.19;58.59
21185;BME280;18176;49.502;11.754;2023-09-07T07:02:34;97475.84;;;22.25;57.99
21185;BME280;18176;49.502;11.754;2023-09-07T07:06:35;97496.97;;;22.42;57.52
21185;BME280;18176;49.502;11.754;2023-09-07T07:10:37;97499.75;;;22.74;57.03
21185;BME280;18176;49.502;11.754;2023-09-07T07:14:37;97493.78;;;22.91;56.34
21185;BME280;18176;49.502;11.754;2023-09-07T07:18:41;97496.88;;;23.17;56.15
21185;BME280;18176;49.502;11.754;2023-09-07T07:22:48;97501.66;;;23.06;55.76
21185;BME280;18176;49.502;11.754;2023-09-07T07:26:48;97501.91;;;23.23;55.43
21185;BME280;18176;49.502;11.754;2023-09-07T07:30:49;97497.28;;;23.56;54.75
21185;BME280;18176;49.502;11.754;2023-09-07T07:34:53;97503.25;;;23.85;54.44
21185;BME280;18176;49.502;11.754;2023-09-07T07:38:55;97504.41;;;23.93;53.57
21185;BME280;18176;49.502;11.754;2023-09-07T07:42:57;97499.19;;;24.37;53.18
21185;BME280;18176;49.502;11.754;2023-09-07T07:46:58;97498.94;;;24.61;53.14
21185;BME280;18176;49.502;11.754;2023-09-07T07:51:03;97494.88;;;24.72;51.33
21185;BME280;18176;49.502;11.754;2023-09-07T07:55:10;97473.00;;;24.68;50.34
21185;BME280;18176;49.502;11.754;2023-09-07T07:59:11;97476.31;;;25.23;49.36
21185;BME280;18176;49.502;11.754;2023-09-07T08:03:12;97485.72;;;25.87;48.93
21185;BME280;18176;49.502;11.754;2023-09-07T08:07:15;97503.44;;;26.41;46.32
21185;BME280;18176;49.502;11.754;2023-09-07T08:11:16;97508.59;;;27.20;46.21
21185;BME280;18176;49.502;11.754;2023-09-07T08:15:20;97506.28;;;28.11;43.96
21185;BME280;18176;49.502;11.754;2023-09-07T08:19:23;97499.72;;;28.32;42.81
21185;BME280;18176;49.502;11.754;2023-09-07T08:23:28;97488.44;;;28.42;41.97
21185;BME280;18176;49.502;11.754;2023-09-07T08:27:29;97492.53;;;28.78;42.16
21185;BME280;18176;49.502;11.754;2023-09-07T08:31:29;97502.19;;;29.73;41.58
21185;BME280;18176;49.502;11.754;2023-09-07T08:35:31;97488.78;;;30.17;40.23
21185;BME280;18176;49.502;11.754;2023-09-07T08:39:36;97489.84;;;30.76;39.16
21185;BME280;18176;49.502;11.754;2023-09-07T08:43:45;97468.69;;;30.61;37.99
21185;BME280;18176;49.502;11.754;2023-09-07T08:47:47;97479.81;;;30.80;39.06
21185;BME280;18176;49.502;11.754;2023-09-07T08:51:49;97485.25;;;31.48;37.83
21185;BME280;18176;49.502;11.754;2023-09-07T08:55:52;97484.13;;;31.37;36.61
21185;BME280;18176;49.502;11.754;2023-09-07T08:59:54;97472.19;;;31.88;36.45
21185;BME280;18176;49.502;11.754;2023-09-07T09:03:54;97492.56;;;32.37;34.97
21185;BME280;18176;49.502;11.754;2023-09-07T09:08:02;97491.06;;;32.75;35.07
21185;BME280;18176;49.502;11.754;2023-09-07T09:12:12;97483.53;;;33.48;34.05
21185;BME280;18176;49.502;11.754;2023-09-07T09:16:13;97481.03;;;33.20;33.94
21185;BME280;18176;49.502;11.754;2023-09-07T09:20:22;97479.22;;;33.92;33.56
21185;BME280;18176;49.502;11.754;2023-09-07T09:24:24;97477.94;;;33.86;32.46
21185;BME280;18176;49.502;11.754;2023-09-07T09:28:27;97477.59;;;34.96;30.91
21185;BME280;18176;49.502;11.754;2023-09-07T09:32:30;97479.22;;;34.41;31.50
21185;BME280;18176;49.502;11.754;2023-09-07T09:36:33;97468.59;;;35.33;30.41
21185;BME280;18176;49.502;11.754;2023-09-07T09:40:34;97470.19;;;35.34;30.39
21185;BME280;18176;49.502;11.754;2023-09-07T09:44:39;97445.56;;;35.11;31.08
21185;BME280;18176;49.502;11.754;2023-09-07T09:48:41;97452.16;;;36.31;30.27
21185;BME280;18176;49.502;11.754;2023-09-07T09:52:43;97462.16;;;37.46;28.38
21185;BME280;18176;49.502;11.754;2023-09-07T09:56:45;97462.91;;;37.36;27.69
21185;BME280;18176;49.502;11.754;2023-09-07T10:00:53;97457.34;;;37.33;27.29
21185;BME280;18176;49.502;11.754;2023-09-07T10:04:55;97448.28;;;37.25;27.32
21185;BME280;18176;49.502;11.754;2023-09-07T10:09:01;97453.59;;;36.76;27.40
21185;BME280;18176;49.502;11.754;2023-09-07T10:13:05;97438.38;;;37.17;27.05
21185;BME280;18176;49.502;11.754;2023-09-07T10:17:08;97442.72;;;37.18;27.21
21185;BME280;18176;49.502;11.754;2023-09-07T10:21:09;97428.97;;;38.34;25.45
21185;BME280;18176;49.502;11.754;2023-09-07T10:25:19;97438.28;;;38.97;24.79
21185;BME280;18176;49.502;11.754;2023-09-07T10:29:20;97432.91;;;39.92;23.74
21185;BME280;18176;49.502;11.754;2023-09-07T10:33:23;97435.97;;;38.81;25.45
21185;BME280;18176;49.502;11.754;2023-09-07T10:37:29;97411.31;;;39.04;24.86
21185;BME280;18176;49.502;11.754;2023-09-07T10:41:44;97414.75;;;40.25;24.63
21185;BME280;18176;49.502;11.754;2023-09-07T10:45:45;97399.50;;;40.44;23.70
21185;BME280;18176;49.502;11.754;2023-09-07T10:49:50;97412.31;;;38.52;25.38
21185;BME280;18176;49.502;11.754;2023-09-07T10:53:51;97414.38;;;40.23;23.98
21185;BME280;18176;49.502;11.754;2023-09-07T10:57:53;97394.16;;;40.23;23.71
21185;BME280;18176;49.502;11.754;2023-09-07T11:01:54;97401.34;;;41.18;22.46
21185;BME280;18176;49.502;11.754;2023-09-07T11:06:10;97393.44;;;41.70;22.95
21185;BME280;18176;49.502;11.754;2023-09-07T11:10:12;97399.38;;;41.95;22.04
21185;BME280;18176;49.502;11.754;2023-09-07T11:14:12;97391.88;;;41.42;21.85
21185;BME280;18176;49.502;11.754;2023-09-07T11:18:13;97394.69;;;40.82;22.46
21185;BME280;18176;49.502;11.754;2023-09-07T11:22:16;97393.94;;;40.47;23.93
21185;BME280;18176;49.502;11.754;2023-09-07T11:26:17;97387.47;;;40.88;22.75
21185;BME280;18176;49.502;11.754;2023-09-07T11:30:17;97389.41;;;40.57;22.64
21185;BME280;18176;49.502;11.754;2023-09-07T11:34:17;97381.13;;;41.44;22.69
21185;BME280;18176;49.502;11.754;2023-09-07T11:38:29;97386.09;;;41.79;21.17
21185;BME280;18176;49.502;11.754;2023-09-07T11:42:35;97387.47;;;40.88;21.78
21185;BME280;18176;49.502;11.754;2023-09-07T11:46:37;97384.56;;;41.78;21.48
21185;BME280;18176;49.502;11.754;2023-09-07T11:50:39;97393.66;;;42.02;21.53
21185;BME280;18176;49.502;11.754;2023-09-07T11:54:42;97394.16;;;41.20;21.72
21185;BME280;18176;49.502;11.754;2023-09-07T11:58:42;97388.69;;;42.56;20.22
21185;BME280;18176;49.502;11.754;2023-09-07T12:02:46;97383.22;;;43.76;20.20
21185;BME280;18176;49.502;11.754;2023-09-07T12:06:46;97371.34;;;44.61;19.30
21185;BME280;18176;49.502;11.754;2023-09-07T12:10:50;97371.94;;;43.63;19.76
21185;BME280;18176;49.502;11.754;2023-09-07T12:14:51;97373.91;;;41.73;20.82
21185;BME280;18176;49.502;11.754;2023-09-07T12:18:53;97364.78;;;42.94;19.94
21185;BME280;18176;49.502;11.754;2023-09-07T12:22:54;97361.53;;;43.67;18.78
21185;BME280;18176;49.502;11.754;2023-09-07T12:26:56;97355.56;;;41.49;20.63
21185;BME280;18176;49.502;11.754;2023-09-07T12:30:57;97354.09;;;43.77;19.41
21185;BME280;18176;49.502;11.754;2023-09-07T12:34:57;97341.66;;;43.13;19.81
21185;BME280;18176;49.502;11.754;2023-09-07T12:38:58;97341.50;;;43.53;19.08
21185;BME280;18176;49.502;11.754;2023-09-07T12:43:01;97337.69;;;43.63;18.62
21185;BME280;18176;49.502;11.754;2023-09-07T12:47:01;97334.09;;;43.78;19.71
21185;BME280;18176;49.502;11.754;2023-09-07T12:51:02;97338.72;;;44.42;18.49
21185;BME280;18176;49.502;11.754;2023-09-07T12:55:04;97339.69;;;42.94;18.39
21185;BME280;18176;49.502;11.754;2023-09-07T12:59:07;97342.53;;;39.88;20.80
21185;BME280;18176;49.502;11.754;2023-09-07T13:03:08;97348.16;;;39.33;21.17
21185;BME280;18176;49.502;11.754;2023-09-07T13:07:10;97339.66;;;41.00;20.50
21185;BME280;18176;49.502;11.754;2023-09-07T13:11:10;97341.34;;;40.94;20.46
21185;BME280;18176;49.502;11.754;2023-09-07T13:15:13;97336.69;;;40.84;20.78
21185;BME280;18176;49.502;11.754;2023-09-07T13:19:13;97325.03;;;40.66;20.55
21185;BME280;18176;49.502;11.754;2023-09-07T13:23:13;97324.88;;;40.12;21.15
21185;BME280;18176;49.502;11.754;2023-09-07T13:27:15;97313.22;;;39.87;20.63
21185;BME280;18176;49.502;11.754;2023-09-07T13:31:18;97310.31;;;41.91;19.42
21185;BME280;18176;49.502;11.754;2023-09-07T13:35:18;97308.53;;;41.81;18.60
21185;BME280;18176;49.502;11.754;2023-09-07T13:39:19;97312.31;;;40.95;20.13
21185;BME280;18176;49.502;11.754;2023-09-07T13:43:19;97314.47;;;41.37;19.33
21185;BME280;18176;49.502;11.754;2023-09-07T13:47:22;97303.34;;;41.83;18.85
21185;BME280;18176;49.502;11.754;2023-09-07T13:51:23;97312.53;;;41.57;18.59
21185;BME280;18176;49.502;11.754;2023-09-07T13:55:26;97314.41;;;40.57;20.09
21185;BME280;18176;49.502;11.754;2023-09-07T13:59:26;97309.28;;;40.22;20.65
21185;BME280;18176;49.502;11.754;2023-09-07T14:03:32;97313.38;;;39.73;21.07
21185;BME280;18176;49.502;11.754;2023-09-07T14:07:33;97309.03;;;41.30;19.90
21185;BME280;18176;49.502;11.754;2023-09-07T14:11:33;97306.25;;;41.76;19.98
21185;BME280;18176;49.502;11.754;2023-09-07T14:15:33;97304.75;;;41.91;19.77
21185;BME280;18176;49.502;11.754;2023-09-07T14:19:36;97288.91;;;41.65;19.50
21185;BME280;18176;49.502;11.754;2023-09-07T14:23:36;97304.13;;;40.84;20.29
21185;BME280;18176;49.502;11.754;2023-09-07T14:27:37;97302.34;;;41.47;20.22
21185;BME280;18176;49.502;11.754;2023-09-07T14:31:37;97300.50;;;41.14;20.51
21185;BME280;18176;49.502;11.754;2023-09-07T14:35:42;97291.66;;;40.96;20.88
21185;BME280;18176;49.502;11.754;2023-09-07T14:39:42;97299.41;;;41.35;20.32
21185;BME280;18176;49.502;11.754;2023-09-07T14:43:46;97297.16;;;41.26;20.06
21185;BME280;18176;49.502;11.754;2023-09-07T14:47:47;97290.72;;;40.15;20.96
21185;BME280;18176;49.502;11.754;2023-09-07T14:51:49;97282.69;;;39.46;22.43
21185;BME280;18176;49.502;11.754;2023-09-07T14:55:50;97291.88;;;38.81;22.60
21185;BME280;18176;49.502;11.754;2023-09-07T14:59:50;97294.47;;;39.54;21.90
21185;BME280;18176;49.502;11.754;2023-09-07T15:03:50;97296.53;;;38.91;22.48
21185;BME280;18176;49.502;11.754;2023-09-07T15:07:53;97291.53;;;39.30;21.91
21185;BME280;18176;49.502;11.754;2023-09-07T15:11:53;97283.66;;;39.25;22.53
21185;BME280;18176;49.502;11.754;2023-09-07T15:15:54;97289.06;;;39.43;22.15
21185;BME280;18176;49.502;11.754;2023-09-07T15:19:54;97276.16;;;39.22;22.18
21185;BME280;18176;49.502;11.754;2023-09-07T15:23:57;97288.31;;;38.84;22.94
21185;BME280;18176;49.502;11.754;2023-09-07T15:27:57;97291.31;;;39.55;22.35
21185;BME280;18176;49.502;11.754;2023-09-07T15:31:57;97295.06;;;39.79;22.03
21185;BME280;18176;49.502;11.754;2023-09-07T15:35:58;97286.44;;;40.07;21.88
21185;BME280;18176;49.502;11.754;2023-09-07T15:40:02;97290.72;;;40.15;21.48
21185;BME280;18176;49.502;11.754;2023-09-07T15:44:03;97298.22;;;40.52;21.41
21185;BME280;18176;49.502;11.754;2023-09-07T15:48:05;97293.28;;;39.95;21.91
21185;BME280;18176;49.502;11.754;2023-09-07T15:52:06;97295.31;;;39.51;21.93
21185;BME280;18176;49.502;11.754;2023-09-07T15:56:09;97295.25;;;39.61;22.16
21185;BME280;18176;49.502;11.754;2023-09-07T16:00:11;97279.06;;;39.05;22.50
21185;BME280;18176;49.502;11.754;2023-09-07T16:04:12;97298.28;;;38.64;23.12
21185;BME280;18176;49.502;11.754;2023-09-07T16:08:12;97287.91;;;38.82;23.00
21185;BME280;18176;49.502;11.754;2023-09-07T16:12:15;97287.19;;;38.71;23.24
21185;BME280;18176;49.502;11.754;2023-09-07T16:16:15;97293.91;;;38.77;23.66
21185;BME280;18176;49.502;11.754;2023-09-07T16:20:16;97288.25;;;38.08;23.70
21185;BME280;18176;49.502;11.754;2023-09-07T16:24:16;97284.22;;;38.23;24.00
21185;BME280;18176;49.502;11.754;2023-09-07T16:28:19;97282.50;;;38.61;23.73
21185;BME280;18176;49.502;11.754;2023-09-07T16:32:19;97269.91;;;38.46;23.72
21185;BME280;18176;49.502;11.754;2023-09-07T16:36:20;97284.59;;;38.36;24.11
21185;BME280;18176;49.502;11.754;2023-09-07T16:40:21;97281.06;;;38.18;24.09
21185;BME280;18176;49.502;11.754;2023-09-07T16:44:24;97285.56;;;36.92;25.61
21185;BME280;18176;49.502;11.754;2023-09-07T16:48:25;97284.72;;;36.81;25.68
21185;BME280;18176;49.502;11.754;2023-09-07T16:52:26;97295.72;;;36.59;26.16
21185;BME280;18176;49.502;11.754;2023-09-07T16:56:29;97296.91;;;36.51;26.17
21185;BME280;18176;49.502;11.754;2023-09-07T17:00:33;97302.41;;;36.44;26.54
21185;BME280;18176;49.502;11.754;2023-09-07T17:04:34;97284.81;;;35.98;27.17
21185;BME280;18176;49.502;11.754;2023-09-07T17:08:35;97297.97;;;35.61;27.49
21185;BME280;18176;49.502;11.754;2023-09-07T17:12:36;97286.91;;;35.06;28.84
21185;BME280;18176;49.502;11.754;2023-09-07T17:16:38;97305.81;;;34.75;29.79
21185;BME280;18176;49.502;11.754;2023-09-07T17:20:39;97298.81;;;34.47;29.33
21185;BME280;18176;49.502;11.754;2023-09-07T17:24:40;97301.56;;;33.84;30.44
21185;BME280;18176;49.502;11.754;2023-09-07T17:28:40;97308.78;;;32.98;31.43
21185;BME280;18176;49.502;11.754;2023-09-07T17:32:43;97316.28;;;32.40;33.20
21185;BME280;18176;49.502;11.754;2023-09-07T17:36:43;97313.31;;;31.76;33.41
21185;BME280;18176;49.502;11.754;2023-09-07T17:40:43;97317.72;;;31.14;35.26
21185;BME280;18176;49.502;11.754;2023-09-07T17:44:44;97312.75;;;30.61;36.20
21185;BME280;18176;49.502;11.754;2023-09-07T17:48:47;97308.69;;;29.75;38.19
21185;BME280;18176;49.502;11.754;2023-09-07T17:52:47;97313.03;;;29.40;38.84
21185;BME280;18176;49.502;11.754;2023-09-07T17:56:48;97315.25;;;28.90;39.31
21185;BME280;18176;49.502;11.754;2023-09-07T18:00:49;97311.13;;;28.51;40.13
21185;BME280;18176;49.502;11.754;2023-09-07T18:04:54;97324.28;;;28.16;40.91
21185;BME280;18176;49.502;11.754;2023-09-07T18:08:54;97326.00;;;28.00;41.42
21185;BME280;18176;49.502;11.754;2023-09-07T18:12:55;97333.38;;;27.50;42.72
21185;BME280;18176;49.502;11.754;2023-09-07T18:16:55;97338.41;;;27.31;43.21
21185;BME280;18176;49.502;11.754;2023-09-07T18:21:03;97319.88;;;26.86;44.01
21185;BME280;18176;49.502;11.754;2023-09-07T18:25:05;97334.94;;;26.58;45.04
21185;BME280;18176;49.502;11.754;2023-09-07T18:29:06;97338.00;;;26.57;45.49
21185;BME280;18176;49.502;11.754;2023-09-07T18:33:06;97344.56;;;26.47;45.65
21185;BME280;18176;49.502;11.754;2023-09-07T18:37:10;97339.47;;;26.28;45.97
21185;BME280;18176;49.502;11.754;2023-09-07T18:41:10;97346.97;;;26.14;46.62
21185;BME280;18176;49.502;11.754;2023-09-07T18:45:13;97340.59;;;26.10;46.54
21185;BME280;18176;49.502;11.754;2023-09-07T18:49:14;97348.66;;;26.02;46.56
21185;BME280;18176;49.502;11.754;2023-09-07T18:53:16;97345.47;;;25.83;47.12
21185;BME280;18176;49.502;11.754;2023-09-07T18:57:17;97337.63;;;25.55;47.65
21185;BME280;18176;49.502;11.754;2023-09-07T19:01:18;97352.16;;;25.76;47.32
21185;BME280;18176;49.502;11.754;2023-09-07T19:05:18;97350.53;;;25.58;47.80
21185;BME280;18176;49.502;11.754;2023-09-07T19:09:21;97351.91;;;25.39;47.54
21185;BME280;18176;49.502;11.754;2023-09-07T19:13:21;97358.06;;;25.22;48.22
21185;BME280;18176;49.502;11.754;2023-09-07T19:17:22;97336.44;;;25.00;49.26
21185;BME280;18176;49.502;11.754;2023-09-07T19:21:22;97360.13;;;24.86;50.46
21185;BME280;18176;49.502;11.754;2023-09-07T19:25:25;97355.66;;;24.90;51.05
21185;BME280;18176;49.502;11.754;2023-09-07T19:29:26;97353.81;;;24.99;50.63
21185;BME280;18176;49.502;11.754;2023-09-07T19:33:27;97364.78;;;24.72;51.12
21185;BME280;18176;49.502;11.754;2023-09-07T19:37:27;97356.03;;;24.75;51.89
21185;BME280;18176;49.502;11.754;2023-09-07T19:41:30;97359.25;;;24.55;52.16
21185;BME280;18176;49.502;11.754;2023-09-07T19:45:32;97360.59;;;24.43;52.22
21185;BME280;18176;49.502;11.754;2023-09-07T19:49:32;97341.91;;;24.33;53.10
21185;BME280;18176;49.502;11.754;2023-09-07T19:53:32;97357.16;;;24.29;53.09
21185;BME280;18176;49.502;11.754;2023-09-07T19:57:35;97375.66;;;24.14;53.57
21185;BME280;18176;49.502;11.754;2023-09-07T20:01:52;97369.28;;;23.96;53.44
21185;BME280;18176;49.502;11.754;2023-09-07T20:05:55;97370.63;;;23.85;54.11
21185;BME280;18176;49.502;11.754;2023-09-07T20:09:56;97371.22;;;23.82;54.43
21185;BME280;18176;49.502;11.754;2023-09-07T20:13:58;97367.91;;;23.85;54.60
21185;BME280;18176;49.502;11.754;2023-09-07T20:17:59;97374.75;;;23.69;55.22
21185;BME280;18176;49.502;11.754;2023-09-07T20:21:59;97377.84;;;23.62;55.42
21185;BME280;18176;49.502;11.754;2023-09-07T20:26:00;97383.38;;;23.44;56.39
21185;BME280;18176;49.502;11.754;2023-09-07T20:30:06;97376.16;;;23.39;56.73
21185;BME280;18176;49.502;11.754;2023-09-07T20:34:07;97376.03;;;23.31;56.81
21185;BME280;18176;49.502;11.754;2023-09-07T20:38:07;97379.22;;;23.33;56.55
21185;BME280;18176;49.502;11.754;2023-09-07T20:42:08;97378.13;;;23.20;56.05
21185;BME280;18176;49.502;11.754;2023-09-07T20:46:14;97366.91;;;22.99;56.38
21185;BME280;18176;49.502;11.754;2023-09-07T20:50:14;97374.50;;;22.97;56.94
21185;BME280;18176;49.502;11.754;2023-09-07T20:54:15;97378.88;;;22.93;57.23
21185;BME280;18176;49.502;11.754;2023-09-07T20:58:15;97378.06;;;22.79;57.83
21185;BME280;18176;49.502;11.754;2023-09-07T21:02:18;97379.66;;;22.80;58.16
21185;BME280;18176;49.502;11.754;2023-09-07T21:06:19;97369.03;;;22.70;58.47